createdAt,value
2019-03-17T00:02:31.051Z,65.62
2019-03-17T00:05:18.907Z,65.64
2019-03-17T00:08:06.746Z,65.09
2019-03-17T00:10:54.688Z,63.39
2019-03-17T00:16:11.064Z,62.91
2019-03-17T00:18:59.143Z,64.77
2019-03-17T00:21:29.564Z,66.09
2019-03-17T00:27:05.499Z,68.19
2019-03-17T00:29:53.399Z,68.20
2019-03-17T00:32:41.363Z,69.80
2019-03-17T00:35:10.074Z,68.62
2019-03-17T00:37:58.000Z,66.19
2019-03-17T00:40:45.857Z,65.93
2019-03-17T00:43:33.750Z,67.17
2019-03-17T00:46:21.660Z,69.38
2019-03-17T00:49:09.478Z,71.10
2019-03-17T00:51:57.288Z,71.94
2019-03-17T00:54:25.976Z,73.57
2019-03-17T00:56:54.608Z,74.09
2019-03-17T00:59:42.544Z,75.04
2019-03-17T01:02:30.442Z,76.75
2019-03-17T01:05:18.616Z,76.63
2019-03-17T01:08:06.469Z,78.51
2019-03-17T01:10:54.329Z,78.08
2019-03-17T01:13:42.194Z,79.98
2019-03-17T01:16:30.052Z,80.77
2019-03-17T01:19:17.861Z,80.91
2019-03-17T01:21:46.715Z,80.30
2019-03-17T01:24:15.369Z,81.47
2019-03-17T01:29:37.873Z,83.04
2019-03-17T01:32:25.710Z,82.54
2019-03-17T01:34:54.329Z,82.45
2019-03-17T01:37:42.630Z,82.68
2019-03-17T01:40:51.062Z,81.54
2019-03-17T01:43:38.954Z,82.71
2019-03-17T01:46:26.885Z,82.38
2019-03-17T01:49:14.654Z,80.47
2019-03-17T01:52:02.509Z,79.78
2019-03-17T01:54:50.353Z,77.46
2019-03-17T01:57:38.419Z,72.26
2019-03-17T02:03:33.195Z,67.95
2019-03-17T02:06:21.362Z,63.35
2019-03-17T02:09:09.200Z,58.89
2019-03-17T02:11:57.283Z,59.22
2019-03-17T02:14:45.573Z,56.57
2019-03-17T02:17:33.413Z,57.60
2019-03-17T02:20:02.041Z,58.63
2019-03-17T02:22:49.802Z,60.44
2019-03-17T02:25:31.269Z,62.11
2019-03-17T02:27:59.919Z,62.21
2019-03-17T02:30:47.740Z,61.16
2019-03-17T02:36:42.519Z,60.34
2019-03-17T02:39:30.414Z,60.01
2019-03-17T02:42:18.456Z,61.76
2019-03-17T02:47:53.873Z,59.86
2019-03-17T02:53:48.641Z,60.44
2019-03-17T02:56:36.480Z,60.22
2019-03-17T02:59:24.293Z,60.61
2019-03-17T03:04:59.666Z,61.24
2019-03-17T03:07:47.898Z,60.62
2019-03-17T03:10:35.737Z,60.18
2019-03-17T03:13:04.384Z,59.68
2019-03-17T03:15:52.257Z,61.35
2019-03-17T03:18:40.211Z,63.15
2019-03-17T03:21:28.126Z,65.66
2019-03-17T03:24:16.054Z,66.10
2019-03-17T03:27:03.884Z,66.18
2019-03-17T03:29:52.158Z,64.75
2019-03-17T03:35:46.951Z,70.21
2019-03-17T03:41:22.500Z,70.50
2019-03-17T03:43:51.400Z,70.80
2019-03-17T03:49:26.809Z,72.72
2019-03-17T03:52:14.960Z,75.15
2019-03-17T03:55:02.925Z,75.79
2019-03-17T03:57:31.562Z,76.15
2019-03-17T04:00:00.506Z,76.35
2019-03-17T04:05:23.594Z,77.99
2019-03-17T04:08:11.432Z,78.56
2019-03-17T04:13:33.256Z,78.93
2019-03-17T04:16:01.963Z,79.51
2019-03-17T04:18:49.977Z,80.45
2019-03-17T04:21:37.833Z,80.04
2019-03-17T04:24:06.479Z,79.30
2019-03-17T04:26:54.424Z,79.92
2019-03-17T04:29:42.194Z,80.15
2019-03-17T04:32:30.118Z,79.82
2019-03-17T04:35:17.967Z,75.59
2019-03-17T04:37:46.603Z,75.71
2019-03-17T04:43:42.726Z,72.50
2019-03-17T04:46:30.729Z,71.53
2019-03-17T04:49:18.483Z,66.08
2019-03-17T04:52:06.307Z,61.69
2019-03-17T04:57:28.038Z,54.87
2019-03-17T05:00:15.897Z,53.83
2019-03-17T05:02:44.590Z,54.06
2019-03-17T05:05:13.370Z,53.72
2019-03-17T05:07:42.083Z,54.94
2019-03-17T05:10:31.436Z,54.56
2019-03-17T05:13:19.401Z,55.13
2019-03-17T05:16:07.284Z,54.42
2019-03-17T05:18:55.362Z,53.82
2019-03-17T05:24:11.700Z,52.91
2019-03-17T05:26:40.389Z,53.06
2019-03-17T05:29:28.347Z,53.36
2019-03-17T05:31:57.062Z,54.38
2019-03-17T05:34:44.763Z,53.82
2019-03-17T05:37:13.441Z,51.74
2019-03-17T05:39:42.081Z,52.54
2019-03-17T05:42:10.742Z,52.97
2019-03-17T05:44:39.538Z,53.15
2019-03-17T05:47:27.351Z,51.82
2019-03-17T05:50:15.182Z,51.91
2019-03-17T05:52:43.859Z,50.01
2019-03-17T05:55:12.511Z,49.70
2019-03-17T05:58:00.366Z,49.53
2019-03-17T06:00:29.008Z,48.83
2019-03-17T06:02:57.707Z,48.33
2019-03-17T06:05:45.624Z,48.08
2019-03-17T06:08:14.308Z,49.90
2019-03-17T06:11:02.158Z,48.60
2019-03-17T06:13:30.843Z,49.13
2019-03-17T06:15:59.744Z,48.17
2019-03-17T06:18:47.528Z,47.08
2019-03-17T06:21:35.401Z,47.29
2019-03-17T06:24:03.995Z,45.40
2019-03-17T06:26:51.824Z,43.53
2019-03-17T06:30:00.394Z,43.70
2019-03-17T06:32:28.996Z,43.97
2019-03-17T06:34:57.601Z,43.12
2019-03-17T06:37:31.058Z,42.96
2019-03-17T06:39:56.768Z,43.31
2019-03-17T06:42:25.306Z,41.76
2019-03-17T06:44:53.924Z,42.36
2019-03-17T06:47:22.561Z,41.03
2019-03-17T06:49:51.267Z,40.98
2019-03-17T06:52:39.129Z,41.37
2019-03-17T06:55:47.592Z,42.08
2019-03-17T06:58:16.177Z,41.74
2019-03-17T07:01:04.114Z,42.53
2019-03-17T07:03:32.770Z,42.34
2019-03-17T07:06:20.606Z,40.55
2019-03-17T07:08:49.265Z,40.44
2019-03-17T07:11:17.954Z,41.62
2019-03-17T07:13:46.684Z,42.19
2019-03-17T07:16:15.380Z,42.49
2019-03-17T07:18:43.969Z,41.11
2019-03-17T07:21:12.650Z,42.37
2019-03-17T07:23:41.287Z,42.22
2019-03-17T07:26:10.007Z,41.85
2019-03-17T07:28:38.649Z,42.52
2019-03-17T07:31:26.481Z,42.44
2019-03-17T07:34:14.438Z,42.62
2019-03-17T07:36:43.151Z,41.34
2019-03-17T07:39:12.434Z,41.50
2019-03-17T07:41:42.141Z,41.40
2019-03-17T07:44:29.965Z,41.97
2019-03-17T07:47:17.956Z,42.36
2019-03-17T07:49:46.670Z,42.56
2019-03-17T07:52:15.324Z,40.56
2019-03-17T07:55:03.282Z,39.99
2019-03-17T07:57:51.144Z,38.90
2019-03-17T08:00:39.032Z,38.21
2019-03-17T08:03:27.010Z,38.99
2019-03-17T08:06:14.887Z,38.44
2019-03-17T08:09:02.717Z,37.23
2019-03-17T08:11:50.587Z,36.79
2019-03-17T08:14:38.424Z,38.17
2019-03-17T08:17:07.109Z,37.23
2019-03-17T08:19:54.949Z,35.32
2019-03-17T08:22:23.614Z,37.09
2019-03-17T08:24:52.383Z,36.90
2019-03-17T08:27:40.236Z,35.57
2019-03-17T08:30:28.155Z,34.38
2019-03-17T08:32:56.843Z,36.97
2019-03-17T08:35:44.791Z,36.10
2019-03-17T08:38:32.640Z,37.53
2019-03-17T08:41:01.347Z,37.12
2019-03-17T08:43:54.112Z,33.60
2019-03-17T08:46:19.653Z,35.02
2019-03-17T08:48:48.362Z,34.15
2019-03-17T08:51:16.908Z,35.36
2019-03-17T08:53:45.636Z,35.37
2019-03-17T08:56:14.326Z,34.03
2019-03-17T08:58:43.032Z,36.33
2019-03-17T09:01:30.866Z,36.10
2019-03-17T09:04:18.872Z,34.85
2019-03-17T09:07:06.598Z,33.47
2019-03-17T09:12:28.749Z,32.70
2019-03-17T09:14:57.451Z,33.67
2019-03-17T09:17:45.298Z,35.97
2019-03-17T09:23:26.144Z,32.57
2019-03-17T09:26:14.065Z,32.21
2019-03-17T09:29:01.824Z,32.96
2019-03-17T09:31:49.720Z,33.92
2019-03-17T09:34:18.376Z,31.39
2019-03-17T09:36:47.082Z,31.13
2019-03-17T09:39:34.955Z,31.45
2019-03-17T09:42:22.806Z,30.60
2019-03-17T09:44:51.457Z,33.11
2019-03-17T09:47:20.171Z,32.39
2019-03-17T09:49:48.809Z,33.34
2019-03-17T09:52:17.679Z,31.78
2019-03-17T09:55:05.597Z,31.64
2019-03-17T09:57:53.564Z,32.98
2019-03-17T10:00:42.930Z,31.85
2019-03-17T10:03:30.896Z,31.54
2019-03-17T10:06:18.687Z,32.22
2019-03-17T10:09:06.608Z,31.32
2019-03-17T10:11:54.458Z,33.31
2019-03-17T10:14:42.379Z,32.78
2019-03-17T10:17:11.104Z,31.53
2019-03-17T10:19:58.799Z,32.42
2019-03-17T10:22:46.573Z,30.98
2019-03-17T10:25:34.325Z,30.09
2019-03-17T10:28:22.211Z,32.63
2019-03-17T10:31:10.123Z,32.56
2019-03-17T10:33:58.065Z,30.87
2019-03-17T10:36:45.926Z,30.91
2019-03-17T10:39:33.810Z,31.65
2019-03-17T10:42:21.701Z,33.07
2019-03-17T10:45:09.587Z,34.33
2019-03-17T10:47:38.376Z,31.66
2019-03-17T10:50:26.365Z,31.23
2019-03-17T10:53:14.227Z,31.66
2019-03-17T10:55:43.005Z,31.56
2019-03-17T10:58:30.847Z,31.28
2019-03-17T11:01:18.652Z,30.22
2019-03-17T11:04:06.507Z,31.85
2019-03-17T11:06:35.209Z,31.47
2019-03-17T11:12:12.128Z,30.87
2019-03-17T11:14:40.795Z,31.05
2019-03-17T11:17:09.506Z,32.21
2019-03-17T11:19:57.432Z,30.92
2019-03-17T11:22:26.074Z,31.57
2019-03-17T11:25:14.022Z,31.62
2019-03-17T11:28:01.842Z,31.22
2019-03-17T11:30:49.662Z,31.99
2019-03-17T11:33:37.654Z,31.72
2019-03-17T11:36:06.366Z,31.95
2019-03-17T11:38:54.046Z,31.60
2019-03-17T11:41:41.963Z,32.66
2019-03-17T11:44:29.941Z,33.54
2019-03-17T11:46:58.618Z,33.78
2019-03-17T11:49:46.621Z,35.44
2019-03-17T11:52:15.438Z,35.40
2019-03-17T11:55:03.409Z,36.05
2019-03-17T11:57:32.042Z,34.72
2019-03-17T12:00:00.775Z,34.67
2019-03-17T12:02:48.681Z,33.69
2019-03-17T12:05:17.471Z,33.59
2019-03-17T12:07:46.236Z,33.87
2019-03-17T12:10:34.189Z,34.28
2019-03-17T12:13:02.958Z,32.66
2019-03-17T12:16:11.415Z,33.16
2019-03-17T12:18:59.294Z,32.43
2019-03-17T12:21:47.174Z,32.77
2019-03-17T12:24:35.264Z,33.97
2019-03-17T12:27:03.975Z,33.68
2019-03-17T12:32:39.476Z,34.04
2019-03-17T12:35:08.266Z,34.86
2019-03-17T12:37:37.018Z,35.16
2019-03-17T12:43:14.250Z,35.89
2019-03-17T12:48:50.128Z,36.28
2019-03-17T12:51:38.101Z,36.77
2019-03-17T12:54:26.115Z,37.54
2019-03-17T12:57:14.435Z,36.15
2019-03-17T12:59:43.149Z,36.95
2019-03-17T13:02:31.076Z,37.31
2019-03-17T13:14:12.772Z,38.67
2019-03-17T13:17:00.752Z,39.51
2019-03-17T13:19:48.868Z,39.81
2019-03-17T13:22:36.893Z,40.06
2019-03-17T13:25:25.081Z,42.38
2019-03-17T13:28:13.044Z,41.59
2019-03-17T13:31:01.189Z,46.49
2019-03-17T13:42:20.584Z,56.70
2019-03-17T13:45:08.483Z,57.54
2019-03-17T13:50:44.413Z,61.96
2019-03-17T13:53:32.448Z,64.92
2019-03-17T13:56:20.663Z,66.04
2019-03-17T13:58:49.538Z,69.58
2019-03-17T14:01:56.793Z,69.72
2019-03-17T14:04:25.682Z,73.42
2019-03-17T14:07:13.672Z,74.84
2019-03-17T14:09:42.571Z,77.32
2019-03-17T14:12:30.719Z,78.12
2019-03-17T14:15:18.808Z,77.44
2019-03-17T14:18:07.101Z,79.92
2019-03-17T14:20:55.103Z,84.69
2019-03-17T14:23:24.033Z,84.79
2019-03-17T14:26:12.168Z,85.05
2019-03-17T14:29:00.427Z,87.17
2019-03-17T14:31:48.659Z,88.30
2019-03-17T14:34:36.914Z,91.15
2019-03-17T14:37:26.705Z,90.99
2019-03-17T14:42:50.782Z,90.45
2019-03-17T14:45:39.022Z,90.41
2019-03-17T14:48:27.257Z,90.49
2019-03-17T14:51:15.338Z,91.33
2019-03-17T14:57:10.444Z,93.25
2019-03-17T15:03:05.554Z,92.10
2019-03-17T15:08:22.100Z,95.70
2019-03-17T15:14:17.197Z,96.87
2019-03-17T15:17:05.334Z,97.08
2019-03-17T15:23:00.431Z,98.53
2019-03-17T15:28:55.595Z,99.59
2019-03-17T15:32:04.266Z,98.50
2019-03-17T15:34:52.449Z,99.72
2019-03-17T15:37:40.702Z,99.12
2019-03-17T15:43:02.641Z,99.32
2019-03-17T15:45:50.789Z,99.64
2019-03-17T15:48:19.675Z,100.00
2019-03-17T15:51:28.297Z,100.00
2019-03-17T15:54:16.444Z,100.00
2019-03-17T15:59:59.791Z,100.00
2019-03-17T16:02:47.968Z,100.00
2019-03-17T16:05:36.278Z,100.00
2019-03-17T16:08:24.554Z,100.00
2019-03-17T16:14:00.487Z,100.00
2019-03-17T16:17:09.158Z,100.00
2019-03-17T16:19:38.130Z,100.00
2019-03-17T16:22:08.745Z,100.00
2019-03-17T16:24:57.140Z,100.00
2019-03-17T16:27:26.083Z,100.00
2019-03-17T16:30:33.510Z,100.00
2019-03-17T16:33:22.037Z,100.00
2019-03-17T16:36:10.172Z,100.00
2019-03-17T16:45:00.430Z,100.00
2019-03-17T16:47:48.851Z,100.00
2019-03-17T16:53:45.608Z,100.00
2019-03-17T16:56:33.804Z,100.00
2019-03-17T16:59:22.007Z,100.00
2019-03-17T17:02:30.692Z,100.00
2019-03-17T17:08:28.320Z,100.00
2019-03-17T17:14:06.428Z,100.00
2019-03-17T17:20:03.296Z,100.00
2019-03-17T17:28:41.855Z,100.00
2019-03-17T17:31:30.107Z,100.00
2019-03-17T17:39:59.169Z,100.00
2019-03-17T17:42:28.128Z,100.00
2019-03-17T17:45:36.882Z,100.00
2019-03-17T17:51:32.071Z,100.00
2019-03-17T17:57:29.002Z,100.00
2019-03-17T18:00:37.640Z,100.00
2019-03-17T18:03:25.820Z,100.00
2019-03-17T18:06:14.267Z,100.00
2019-03-17T18:09:02.700Z,100.00
2019-03-17T18:11:50.853Z,100.00
2019-03-17T18:14:39.104Z,100.00
2019-03-17T18:17:27.342Z,100.00
2019-03-17T18:20:15.577Z,100.00
2019-03-17T18:23:03.828Z,100.00
2019-03-17T18:25:52.079Z,100.00
2019-03-17T18:28:40.369Z,100.00
2019-03-17T18:31:28.422Z,100.00
2019-03-17T18:34:16.600Z,100.00
2019-03-17T18:37:04.845Z,100.00
2019-03-17T18:43:07.134Z,100.00
2019-03-17T18:46:17.712Z,100.00
2019-03-17T18:52:00.295Z,100.00
2019-03-17T18:57:57.343Z,100.00
2019-03-17T19:00:45.808Z,100.00
2019-03-17T19:03:34.353Z,100.00
2019-03-17T19:12:14.994Z,100.00
2019-03-17T19:15:03.539Z,100.00
2019-03-17T19:17:51.926Z,100.00
2019-03-17T19:23:47.135Z,100.00
2019-03-17T19:26:35.380Z,100.00
2019-03-17T19:34:44.341Z,100.00
2019-03-17T19:37:34.528Z,100.00
2019-03-17T19:40:41.844Z,100.00
2019-03-17T19:52:25.093Z,100.00
2019-03-17T19:55:13.357Z,100.00
2019-03-17T19:58:03.193Z,100.00
2019-03-17T20:00:32.696Z,100.00
2019-03-17T20:09:30.190Z,100.00
2019-03-17T20:18:41.542Z,100.00
2019-03-17T20:21:50.589Z,100.00
2019-03-17T20:27:45.479Z,100.00
2019-03-17T20:42:36.110Z,100.00
2019-03-17T20:45:44.889Z,100.00
2019-03-17T20:48:33.592Z,100.00
2019-03-17T20:51:21.836Z,100.00
2019-03-17T20:54:32.196Z,100.00
2019-03-17T20:57:20.425Z,100.00
2019-03-17T21:00:08.678Z,100.00
2019-03-17T21:08:51.691Z,100.00
2019-03-17T21:14:34.617Z,100.00
2019-03-17T21:19:57.125Z,100.00
2019-03-17T21:22:45.013Z,100.00
2019-03-17T21:25:33.306Z,100.00
2019-03-17T21:31:20.558Z,100.00
2019-03-17T21:34:08.802Z,100.00
2019-03-17T21:40:06.577Z,100.00
2019-03-17T21:42:54.714Z,100.00
2019-03-17T21:48:30.592Z,100.00
2019-03-17T21:51:18.756Z,100.00
2019-03-17T21:54:06.984Z,100.00
2019-03-17T21:56:55.015Z,100.00
2019-03-17T21:59:43.086Z,100.00
2019-03-17T22:02:31.098Z,100.00
2019-03-17T22:05:19.168Z,100.00
2019-03-17T22:08:27.903Z,100.00
2019-03-17T22:11:36.892Z,100.00
2019-03-17T22:14:25.122Z,100.00
2019-03-17T22:25:58.589Z,99.62
2019-03-17T22:28:46.476Z,96.07
2019-03-17T22:31:34.319Z,94.82
2019-03-17T22:34:22.253Z,93.95
2019-03-17T22:37:10.295Z,93.13
2019-03-17T22:39:38.817Z,91.57
2019-03-17T22:42:27.049Z,91.18
2019-03-17T22:44:57.396Z,90.68
2019-03-17T22:47:45.679Z,90.11
2019-03-17T22:50:35.456Z,90.07
2019-03-17T22:53:23.354Z,90.40
2019-03-17T22:56:11.928Z,90.77
2019-03-17T22:59:20.357Z,90.87
2019-03-17T23:05:15.199Z,92.65
2019-03-17T23:08:23.642Z,92.51
2019-03-17T23:11:11.539Z,92.01
2019-03-17T23:13:59.403Z,92.10
2019-03-17T23:16:47.302Z,92.48
2019-03-17T23:19:35.182Z,93.42
2019-03-17T23:22:23.067Z,93.18
2019-03-17T23:25:10.902Z,94.39
2019-03-17T23:28:19.362Z,94.12
2019-03-17T23:31:07.223Z,93.08
2019-03-17T23:39:04.144Z,93.62
2019-03-17T23:41:34.408Z,94.07
2019-03-17T23:44:03.216Z,95.02
2019-03-17T23:46:52.870Z,95.22
2019-03-17T23:49:40.707Z,95.26
2019-03-17T23:52:28.970Z,96.16
2019-03-17T23:55:16.799Z,97.27
2019-03-17T23:58:04.676Z,98.90
